Time;durP1;ratioP1;P1;durP2;ratioP2;P2;SDS_P1;SDS_P2;PMS_P1;PMS_P2;Temp;Humidity;BMP_temperature;BMP_pressure;BME280_temperature;BME280_humidity;BME280_pressure;Samples;Min_cycle;Max_cycle;Signal;HPM_P1;HPM_P2
2022/11/29 00:01:28;;;;;;;26.17;15.82;;;5.00;99.90;;;;;;4959467;28;20038;-53
2022/11/29 00:03:54;;;;;;;24.23;15.73;;;4.80;99.90;;;;;;4991838;28;20034;-53
2022/11/29 00:06:26;;;;;;;24.85;14.15;;;4.80;99.90;;;;;;4991402;28;20034;-53
2022/11/29 00:08:52;;;;;;;25.10;15.52;;;4.50;99.90;;;;;;4991333;28;20042;-53
2022/11/29 00:14:12;;;;;;;20.67;14.45;;;4.60;99.90;;;;;;4990462;28;20041;-53
2022/11/29 00:16:41;;;;;;;20.75;12.80;;;4.50;99.90;;;;;;4988217;28;20113;-54
2022/11/29 00:19:07;;;;;;;20.50;13.65;;;4.60;99.90;;;;;;4977192;28;20047;-53
2022/11/29 00:21:33;;;;;;;19.67;13.20;;;4.50;99.90;;;;;;5015805;28;20038;-53
2022/11/29 00:23:59;;;;;;;18.67;12.55;;;4.30;99.90;;;;;;5052629;28;20028;-53
2022/11/29 00:26:25;;;;;;;19.30;13.00;;;4.30;99.90;;;;;;5052407;28;20024;-54
2022/11/29 00:28:50;;;;;;;20.90;11.63;;;4.30;99.90;;;;;;5051449;28;20021;-53
2022/11/29 00:31:26;;;;;;;18.73;13.00;;;4.30;99.90;;;;;;5052162;28;20029;-53
2022/11/29 00:33:52;;;;;;;17.90;12.38;;;4.40;99.90;;;;;;5051205;28;20067;-53
2022/11/29 00:36:19;;;;;;;21.08;13.88;;;;;;;;;;5050496;28;20102;-53
2022/11/29 00:38:45;;;;;;;20.48;13.57;;;4.40;99.90;;;;;;5052239;28;20033;-53
2022/11/29 00:41:11;;;;;;;19.17;13.20;;;4.40;99.90;;;;;;5052212;28;20025;-53
2022/11/29 00:43:37;;;;;;;18.83;12.35;;;4.50;99.90;;;;;;5052180;28;20104;-53
2022/11/29 00:46:03;;;;;;;16.90;12.43;;;4.40;99.90;;;;;;5047387;28;20029;-53
2022/11/29 00:48:30;;;;;;;19.17;12.95;;;4.30;99.90;;;;;;5016763;28;20049;-53
2022/11/29 00:50:55;;;;;;;21.15;14.00;;;4.40;99.90;;;;;;5052309;28;20025;-53
2022/11/29 00:53:21;;;;;;;21.50;14.40;;;4.30;99.90;;;;;;5052113;28;20460;-53
2022/11/29 00:55:48;;;;;;;22.65;11.73;;;4.50;99.90;;;;;;5050153;28;20025;-53
2022/11/29 00:58:14;;;;;;;18.42;12.50;;;4.30;99.90;;;;;;5052184;28;20029;-53
2022/11/29 01:00:40;;;;;;;20.17;14.20;;;4.30;99.90;;;;;;5051736;28;20025;-54
2022/11/29 01:03:06;;;;;;;24.20;15.38;;;4.10;99.90;;;;;;5051887;28;20029;-53
2022/11/29 01:05:31;;;;;;;22.63;15.07;;;4.30;99.90;;;;;;5008637;28;20029;-54
2022/11/29 01:07:58;;;;;;;26.45;16.50;;;;;;;;;;5051457;28;20033;-53
2022/11/29 01:10:24;;;;;;;23.77;15.98;;;4.20;99.90;;;;;;5051944;28;20021;-53
2022/11/29 01:12:49;;;;;;;19.20;12.98;;;4.30;99.90;;;;;;5051674;28;20021;-53
2022/11/29 01:15:15;;;;;;;19.83;13.98;;;4.30;99.90;;;;;;5051582;28;20028;-53
2022/11/29 01:17:41;;;;;;;20.67;13.60;;;4.30;99.90;;;;;;5051799;28;20025;-53
2022/11/29 01:20:09;;;;;;;19.70;12.63;;;4.30;99.90;;;;;;5052038;28;20396;-53
2022/11/29 01:22:36;;;;;;;20.02;12.35;;;4.20;99.90;;;;;;5050159;28;20028;-55
2022/11/29 01:25:02;;;;;;;22.60;15.30;;;;;;;;;;5052215;28;20052;-53
2022/11/29 01:27:29;;;;;;;22.02;15.10;;;4.20;99.90;;;;;;5052191;28;20013;-53
2022/11/29 01:29:54;;;;;;;19.08;11.23;;;4.20;99.90;;;;;;5052859;28;20024;-53
2022/11/29 01:32:20;;;;;;;19.67;12.27;;;4.20;99.90;;;;;;5053031;28;20071;-53
2022/11/29 01:34:46;;;;;;;20.25;14.27;;;4.20;99.90;;;;;;5053053;28;20074;-53
2022/11/29 01:37:11;;;;;;;21.20;13.52;;;4.30;99.90;;;;;;5053803;28;20020;-53
2022/11/29 01:39:38;;;;;;;21.90;14.50;;;4.30;99.90;;;;;;5057006;28;20057;-53
2022/11/29 01:42:04;;;;;;;21.38;13.80;;;4.30;99.90;;;;;;5019734;28;20044;-53
2022/11/29 01:44:29;;;;;;;22.83;14.68;;;4.30;99.90;;;;;;5004788;28;20037;-53
2022/11/29 01:46:56;;;;;;;18.13;13.48;;;4.40;99.90;;;;;;5038084;28;20028;-53
2022/11/29 01:49:44;;;;;;;20.45;13.27;;;4.50;99.90;;;;;;5056647;28;20076;-53
2022/11/29 01:52:12;;;;;;;23.13;15.23;;;4.40;99.90;;;;;;5055535;28;20151;-53
2022/11/29 01:54:44;;;;;;;22.50;14.57;;;4.40;99.90;;;;;;5055494;28;20040;-54
2022/11/29 01:57:11;;;;;;;34.67;19.90;;;4.30;99.90;;;;;;5055981;28;20017;-53
2022/11/29 01:59:42;;;;;;;27.85;18.30;;;4.30;99.90;;;;;;5055456;28;20549;-53
2022/11/29 02:02:18;;;;;;;26.73;18.02;;;4.30;99.90;;;;;;5055010;28;20384;-53
2022/11/29 02:04:45;;;;;;;25.98;18.08;;;4.30;99.90;;;;;;5056204;28;20493;-53
2022/11/29 02:07:11;;;;;;;26.85;16.08;;;4.30;99.90;;;;;;5056197;28;20017;-52
2022/11/29 02:09:37;;;;;;;24.55;17.05;;;4.30;99.90;;;;;;5054851;28;20036;-54
2022/11/29 02:12:21;;;;;;;25.08;15.48;;;4.30;99.90;;;;;;5036581;28;20029;-53
2022/11/29 02:15:02;;;;;;;24.08;15.77;;;4.40;99.90;;;;;;5055219;28;20052;-53
2022/11/29 02:18:02;;;;;;;23.95;13.95;;;4.50;99.90;;;;;;5054201;28;20029;-53
2022/11/29 02:20:54;;;;;;;24.52;15.02;;;4.40;99.90;;;;;;5053069;28;20480;-53
2022/11/29 02:23:35;;;;;;;23.42;15.05;;;4.40;99.90;;;;;;5053436;28;20021;-53
2022/11/29 02:26:38;;;;;;;22.67;15.10;;;4.40;99.90;;;;;;5054193;28;20029;-53
2022/11/29 02:29:32;;;;;;;22.20;14.68;;;4.40;99.90;;;;;;5018435;28;20037;-53
2022/11/29 02:32:06;;;;;;;23.95;14.73;;;4.40;99.90;;;;;;5054156;28;20063;-53
2022/11/29 02:35:02;;;;;;;21.08;14.32;;;4.40;99.90;;;;;;5052565;28;20082;-53
2022/11/29 02:37:27;;;;;;;20.85;13.98;;;4.40;99.90;;;;;;5053809;28;20032;-53
2022/11/29 02:40:02;;;;;;;22.23;15.00;;;4.40;99.90;;;;;;5054241;28;20135;-54
2022/11/29 02:42:52;;;;;;;18.83;12.57;;;4.30;99.90;;;;;;5027612;28;20041;-53
2022/11/29 02:45:36;;;;;;;21.55;14.35;;;4.10;99.90;;;;;;5052419;28;20021;-53
2022/11/29 02:48:32;;;;;;;20.38;13.63;;;4.20;99.90;;;;;;5053357;28;20060;-53
2022/11/29 02:51:26;;;;;;;20.73;14.20;;;4.20;99.90;;;;;;5053270;28;20118;-53
2022/11/29 02:54:00;;;;;;;20.08;13.70;;;4.10;99.90;;;;;;5052964;28;20059;-53
2022/11/29 02:56:38;;;;;;;20.27;13.00;;;4.10;99.90;;;;;;5053240;28;20111;-53
2022/11/29 02:59:14;;;;;;;22.70;12.98;;;4.00;99.90;;;;;;5052169;28;20025;-53
2022/11/29 03:01:49;;;;;;;20.77;13.55;;;3.80;99.90;;;;;;5052823;28;20091;-53
2022/11/29 03:04:47;;;;;;;21.77;13.48;;;4.00;99.90;;;;;;5053992;28;20021;-53
2022/11/29 03:07:50;;;;;;;21.45;13.93;;;3.90;99.90;;;;;;5053068;28;20400;-53
2022/11/29 03:10:30;;;;;;;20.05;13.43;;;3.70;99.90;;;;;;5053571;28;20059;-53
2022/11/29 03:12:57;;;;;;;21.08;13.60;;;3.60;99.90;;;;;;5053182;28;20104;-53
2022/11/29 03:15:33;;;;;;;23.15;14.75;;;3.60;99.90;;;;;;5053593;28;20048;-53
2022/11/29 03:18:01;;;;;;;19.90;12.73;;;3.70;99.90;;;;;;5053666;28;20047;-52
2022/11/29 03:20:37;;;;;;;20.05;12.75;;;3.60;99.90;;;;;;5054016;28;20061;-53
2022/11/29 03:23:21;;;;;;;20.23;13.20;;;3.50;99.90;;;;;;5052011;28;20025;-53
2022/11/29 03:26:07;;;;;;;24.08;15.20;;;3.40;99.90;;;;;;5053379;28;20402;-53
2022/11/29 03:28:41;;;;;;;22.42;13.65;;;3.40;99.90;;;;;;5051794;28;20028;-53
2022/11/29 03:31:14;;;;;;;22.92;15.48;;;3.50;99.90;;;;;;5052305;28;20051;-53
2022/11/29 03:34:10;;;;;;;21.80;13.98;;;3.50;99.90;;;;;;5052311;28;20025;-53
2022/11/29 03:36:49;;;;;;;23.52;13.98;;;3.50;99.90;;;;;;5052256;28;20059;-53
2022/11/29 03:39:42;;;;;;;24.48;16.08;;;3.40;99.90;;;;;;5053180;28;20047;-53
2022/11/29 03:42:25;;;;;;;31.75;18.55;;;3.50;99.90;;;;;;5041019;28;20102;-53
2022/11/29 03:45:02;;;;;;;;;;;3.60;99.90;;;;;;5051653;28;20550;-53
2022/11/29 03:47:35;;;;;;;26.38;16.35;;;3.60;99.90;;;;;;5052285;28;19912;-53
2022/11/29 03:50:10;;;;;;;24.98;16.13;;;3.60;99.90;;;;;;5053044;28;20028;-53
2022/11/29 03:52:53;;;;;;;24.65;16.02;;;3.70;99.90;;;;;;5017675;28;20032;-53
2022/11/29 03:55:40;;;;;;;22.33;14.18;;;3.80;99.90;;;;;;5001083;28;20034;-53
2022/11/29 03:58:15;;;;;;;21.60;15.05;;;3.90;99.90;;;;;;5001736;28;20079;-53
2022/11/29 04:00:46;;;;;;;20.73;13.70;;;3.90;99.90;;;;;;5001256;28;20037;-53
2022/11/29 04:03:31;;;;;;;22.42;14.20;;;;;;;;;;5001148;28;20469;-53
2022/11/29 04:06:03;;;;;;;21.17;14.20;;;;;;;;;;5001203;28;20125;-53
2022/11/29 04:08:43;;;;;;;21.20;14.18;;;4.00;99.90;;;;;;4969569;28;20490;-53
2022/11/29 04:11:15;;;;;;;25.10;15.98;;;3.90;99.90;;;;;;5000565;28;20053;-52
2022/11/29 04:14:04;;;;;;;19.92;13.10;;;3.90;99.90;;;;;;4968442;28;20026;-53
2022/11/29 04:16:49;;;;;;;20.70;13.23;;;4.10;99.90;;;;;;5000359;28;20034;-53
2022/11/29 04:19:36;;;;;;;20.73;12.80;;;4.00;99.90;;;;;;5003329;28;20038;-53
2022/11/29 04:22:23;;;;;;;21.58;13.43;;;3.90;99.90;;;;;;5002527;28;20039;-53
2022/11/29 04:24:54;;;;;;;20.50;13.50;;;3.90;99.90;;;;;;5001224;28;20064;-53
2022/11/29 04:27:40;;;;;;;22.50;13.57;;;4.40;99.90;;;;;;5046475;28;20124;-53
2022/11/29 04:30:11;;;;;;;23.05;14.25;;;3.80;99.90;;;;;;5050877;28;20055;-53
2022/11/29 04:33:12;;;;;;;20.27;13.48;;;3.90;99.90;;;;;;5007739;28;20116;-53
2022/11/29 04:36:00;;;;;;;19.33;12.50;;;3.80;99.90;;;;;;5050750;28;20079;-53
2022/11/29 04:38:56;;;;;;;24.17;14.45;;;3.90;99.90;;;;;;5051361;28;20043;-53
2022/11/29 04:41:41;;;;;;;20.58;12.77;;;;;;;;;;5050432;28;20021;-52
2022/11/29 04:44:27;;;;;;;23.13;13.82;;;;;;;;;;5052517;28;20028;-53
2022/11/29 04:47:21;;;;;;;21.52;12.45;;;4.00;99.90;;;;;;5034302;28;20033;-53
2022/11/29 04:50:08;;;;;;;20.30;13.23;;;4.00;99.90;;;;;;5051852;28;20037;-53
2022/11/29 04:52:44;;;;;;;19.30;13.30;;;4.10;99.90;;;;;;5050488;28;20029;-53
2022/11/29 04:55:17;;;;;;;20.30;13.35;;;4.20;99.90;;;;;;5051183;28;20023;-53
2022/11/29 04:58:06;;;;;;;20.10;13.95;;;4.10;99.90;;;;;;5052131;28;20530;-53
2022/11/29 05:00:43;;;;;;;19.60;13.25;;;4.00;99.90;;;;;;5029098;28;20049;-53
2022/11/29 05:03:55;;;;;;;18.63;13.30;;;3.90;99.90;;;;;;4982285;28;20029;-54
2022/11/29 05:06:48;;;;;;;23.27;13.40;;;3.80;99.90;;;;;;4970825;28;20035;-53
2022/11/29 05:09:22;;;;;;;19.55;12.57;;;3.80;99.90;;;;;;4967185;28;20125;-53
2022/11/29 05:11:59;;;;;;;21.40;13.27;;;3.90;99.90;;;;;;4972629;28;20040;-53
2022/11/29 05:14:35;;;;;;;19.38;13.50;;;4.00;99.90;;;;;;4973207;28;20178;-53
2022/11/29 05:17:20;;;;;;;22.60;14.32;;;4.10;99.90;;;;;;4942054;28;20038;-53
2022/11/29 05:19:48;;;;;;;21.27;12.77;;;4.00;99.90;;;;;;4971690;28;20536;-53
2022/11/29 05:22:27;;;;;;;25.08;15.25;;;4.10;99.90;;;;;;4973279;28;20034;-52
2022/11/29 05:25:14;;;;;;;21.33;13.45;;;4.20;99.90;;;;;;4972229;28;20030;-53
2022/11/29 05:28:09;;;;;;;27.80;17.80;;;4.20;99.90;;;;;;4972077;28;20453;-53
2022/11/29 05:31:01;;;;;;;29.70;19.27;;;4.20;99.90;;;;;;4970637;28;20023;-54
2022/11/29 05:33:32;;;;;;;24.85;15.70;;;4.40;99.90;;;;;;4958754;28;20038;-53
2022/11/29 05:36:25;;;;;;;22.48;14.52;;;4.40;99.90;;;;;;4974537;28;20534;-52
2022/11/29 05:38:59;;;;;;;20.35;13.90;;;4.40;99.90;;;;;;4974683;28;20062;-53
2022/11/29 05:41:53;;;;;;;23.65;13.93;;;4.30;99.90;;;;;;4998222;28;20032;-53
2022/11/29 05:44:38;;;;;;;21.63;14.48;;;4.40;99.90;;;;;;5049145;28;20021;-53
2022/11/29 05:47:08;;;;;;;23.25;14.70;;;4.20;99.90;;;;;;5048057;28;20061;-53
2022/11/29 05:49:43;;;;;;;21.05;14.18;;;4.10;99.90;;;;;;5046583;28;20054;-54
2022/11/29 05:52:33;;;;;;;27.05;17.10;;;4.20;99.90;;;;;;5050650;28;20108;-53
2022/11/29 05:55:33;;;;;;;27.85;18.23;;;4.20;99.90;;;;;;5050007;28;20082;-55
2022/11/29 05:58:07;;;;;;;29.38;19.67;;;4.00;99.90;;;;;;5049334;28;20090;-47
2022/11/29 06:01:05;;;;;;;31.23;19.83;;;4.20;99.90;;;;;;5052065;28;20094;-50
2022/11/29 06:03:53;;;;;;;22.80;14.98;;;4.10;99.90;;;;;;5023604;28;20041;-50
2022/11/29 06:06:30;;;;;;;25.05;14.90;;;4.00;99.90;;;;;;5043524;28;20026;-51
2022/11/29 06:09:02;;;;;;;20.75;14.48;;;4.00;99.90;;;;;;5053883;28;20059;-49
2022/11/29 06:11:46;;;;;;;24.38;15.73;;;4.20;99.90;;;;;;5049851;28;20033;-49
2022/11/29 06:14:15;;;;;;;22.65;14.95;;;4.10;99.90;;;;;;5054421;28;20100;-51
2022/11/29 06:17:14;;;;;;;23.48;16.33;;;4.00;99.90;;;;;;5051780;28;20385;-52
2022/11/29 06:19:59;;;;;;;26.80;15.02;;;4.00;99.90;;;;;;5053963;28;20029;-51
2022/11/29 06:22:33;;;;;;;24.92;14.05;;;3.90;99.90;;;;;;5052177;28;20107;-52
2022/11/29 06:25:14;;;;;;;23.02;14.80;;;4.10;99.90;;;;;;5048064;28;20499;-52
2022/11/29 06:28:09;;;;;;;23.88;15.10;;;4.00;99.90;;;;;;5052054;28;20477;-52
2022/11/29 06:30:51;;;;;;;23.55;15.48;;;4.00;99.90;;;;;;5052801;28;20017;-52
2022/11/29 06:33:25;;;;;;;28.17;17.58;;;4.10;99.90;;;;;;5053670;28;20116;-52
2022/11/29 06:36:15;;;;;;;27.88;17.55;;;4.00;99.90;;;;;;4972933;28;20038;-53
2022/11/29 06:38:41;;;;;;;25.77;17.65;;;4.10;99.90;;;;;;5006987;28;20030;-53
2022/11/29 06:41:13;;;;;;;23.08;15.50;;;4.00;99.90;;;;;;5004853;28;20125;-52
2022/11/29 06:43:39;;;;;;;24.90;16.75;;;4.00;99.90;;;;;;5009194;28;20444;-52
2022/11/29 06:46:43;;;;;;;29.25;17.17;;;4.00;99.90;;;;;;5013381;28;20081;-52
2022/11/29 06:49:17;;;;;;;27.38;17.98;;;4.00;99.90;;;;;;5012911;28;20052;-52
2022/11/29 06:52:19;;;;;;;27.17;17.70;;;4.20;99.90;;;;;;5012936;28;20076;-52
2022/11/29 06:54:50;;;;;;;29.30;18.10;;;4.30;99.90;;;;;;5013416;28;20575;-52
2022/11/29 06:57:35;;;;;;;28.90;17.70;;;4.40;99.90;;;;;;5013412;28;20169;-52
2022/11/29 07:00:05;;;;;;;29.02;19.63;;;4.50;99.90;;;;;;5013027;28;20180;-51
2022/11/29 07:02:49;;;;;;;27.70;18.42;;;4.60;99.90;;;;;;4996629;28;20446;-52
2022/11/29 07:05:17;;;;;;;32.42;19.75;;;4.70;99.90;;;;;;5012974;28;20095;-51
2022/11/29 07:07:45;;;;;;;27.67;18.45;;;4.70;99.90;;;;;;5031782;28;20033;-52
2022/11/29 07:10:19;;;;;;;25.55;16.00;;;4.80;99.90;;;;;;5035146;28;20044;-52
2022/11/29 07:12:47;;;;;;;26.00;17.67;;;4.60;99.90;;;;;;5016748;28;20045;-51
2022/11/29 07:15:15;;;;;;;26.70;18.50;;;4.60;99.90;;;;;;5034566;28;20041;-52
2022/11/29 07:18:05;;;;;;;25.75;16.92;;;4.80;99.90;;;;;;5016515;28;20140;-51
2022/11/29 07:20:56;;;;;;;25.67;17.25;;;4.70;99.90;;;;;;5034699;28;20034;-51
2022/11/29 07:23:37;;;;;;;26.30;18.15;;;4.70;99.90;;;;;;5034527;28;20080;-52
2022/11/29 07:26:16;;;;;;;25.30;17.40;;;4.70;99.90;;;;;;5034321;28;20477;-52
2022/11/29 07:29:12;;;;;;;24.80;16.38;;;4.80;99.90;;;;;;5034530;28;20030;-57
2022/11/29 07:31:57;;;;;;;25.55;17.27;;;;;;;;;;5034625;28;20482;-58
2022/11/29 07:34:26;;;;;;;26.83;17.83;;;;;;;;;;5034357;28;20033;-59
2022/11/29 07:36:52;;;;;;;33.35;19.83;;;;;;;;;;5034343;28;20033;-58
2022/11/29 07:39:21;;;;;;;29.80;17.35;;;;;;;;;;5034179;28;20063;-55
2022/11/29 07:42:16;;;;;;;32.67;20.42;;;5.20;99.90;;;;;;5034294;28;20477;-56
2022/11/29 07:45:03;;;;;;;31.52;16.00;;;5.10;99.90;;;;;;4973292;28;20050;-56
2022/11/29 07:47:29;;;;;;;31.83;18.67;;;5.00;99.90;;;;;;4973172;28;20027;-56
2022/11/29 07:49:54;;;;;;;31.52;18.90;;;5.20;99.90;;;;;;4973086;28;20124;-58
2022/11/29 07:52:20;;;;;;;35.92;21.27;;;5.30;99.90;;;;;;4973109;28;20038;-57
2022/11/29 07:54:46;;;;;;;31.25;19.80;;;5.30;99.90;;;;;;4973185;28;20045;-56
2022/11/29 07:57:12;;;;;;;37.28;22.73;;;5.50;99.90;;;;;;4972991;28;20533;-56
2022/11/29 07:59:37;;;;;;;40.30;21.23;;;5.70;99.90;;;;;;4972925;28;20384;-60
2022/11/29 08:02:04;;;;;;;38.25;22.48;;;;;;;;;;4956637;28;20043;-57
2022/11/29 08:04:30;;;;;;;37.22;21.80;;;;;;;;;;4972986;28;20081;-56
2022/11/29 08:06:59;;;;;;;37.60;22.48;;;;;;;;;;4973000;28;20023;-56
2022/11/29 08:09:25;;;;;;;36.55;20.60;;;;;;;;;;4972861;28;20041;-58
2022/11/29 08:11:51;;;;;;;33.22;21.70;;;5.70;99.90;;;;;;4972839;28;20406;-58
2022/11/29 08:14:17;;;;;;;26.42;15.52;;;5.90;99.90;;;;;;4972653;28;20058;-59
2022/11/29 08:16:42;;;;;;;31.02;20.05;;;5.90;99.90;;;;;;4972747;28;20042;-56
2022/11/29 08:19:08;;;;;;;28.77;18.65;;;6.10;99.90;;;;;;4972722;28;20125;-60
2022/11/29 08:21:34;;;;;;;27.17;18.42;;;6.30;99.90;;;;;;5015171;28;20448;-55
2022/11/29 08:24:00;;;;;;;28.42;19.17;;;6.50;99.90;;;;;;5033486;28;20021;-58
2022/11/29 08:26:25;;;;;;;28.15;17.35;;;6.60;99.90;;;;;;5033334;28;20052;-59
2022/11/29 08:28:51;;;;;;;24.27;16.67;;;6.40;99.90;;;;;;5014958;28;20087;-50
2022/11/29 08:31:18;;;;;;;24.83;16.85;;;6.50;99.90;;;;;;5033235;28;20033;-49
2022/11/29 08:33:44;;;;;;;28.08;19.20;;;6.50;99.90;;;;;;5033323;28;20500;-51
2022/11/29 08:36:12;;;;;;;27.73;18.20;;;6.60;99.90;;;;;;5033412;28;20037;-51
2022/11/29 08:38:38;;;;;;;25.15;16.10;;;6.70;99.90;;;;;;5033385;28;20489;-51
2022/11/29 08:41:06;;;;;;;27.75;17.40;;;6.80;99.90;;;;;;5033370;28;20067;-51
2022/11/29 08:43:33;;;;;;;27.10;17.48;;;6.80;99.90;;;;;;5033237;28;20053;-51
2022/11/29 08:45:59;;;;;;;26.30;17.13;;;7.00;99.90;;;;;;5032817;28;20026;-51
2022/11/29 08:48:25;;;;;;;25.38;16.20;;;;;;;;;;5042003;28;20500;-51
2022/11/29 08:50:52;;;;;;;23.95;16.50;;;7.10;99.90;;;;;;5052588;28;20029;-52
2022/11/29 08:56:03;;;;;;;21.73;14.88;;;7.30;99.90;;;;;;5053062;28;20040;-51
2022/11/29 08:58:30;;;;;;;13.90;9.27;;;;;;;;;;4985475;28;20175;-51
2022/11/29 09:00:56;;;;;;;27.20;16.45;;;7.40;99.90;;;;;;5052804;28;20068;-51
2022/11/29 09:06:08;;;;;;;21.05;12.90;;;7.50;99.90;;;;;;5053217;28;20523;-51
2022/11/29 09:08:34;;;;;;;19.77;12.65;;;7.20;99.90;;;;;;5018178;28;20052;-51
2022/11/29 09:11:05;;;;;;;22.80;14.30;;;7.20;99.90;;;;;;5045985;28;20025;-52
2022/11/29 09:13:31;;;;;;;24.13;12.90;;;7.30;99.90;;;;;;5036432;28;20033;-51
2022/11/29 09:15:56;;;;;;;16.35;10.93;;;7.30;99.90;;;;;;4988966;28;20278;-51
2022/11/29 09:18:22;;;;;;;18.05;12.00;;;7.30;99.90;;;;;;4996125;28;20049;-51
2022/11/29 09:20:48;;;;;;;18.83;12.60;;;7.40;99.90;;;;;;5042712;28;20033;-51
2022/11/29 09:23:14;;;;;;;15.02;10.55;;;7.30;99.90;;;;;;5041269;28;20028;-51
2022/11/29 09:25:39;;;;;;;20.98;14.05;;;7.50;99.90;;;;;;5041038;28;20029;-52
2022/11/29 09:28:06;;;;;;;18.85;11.00;;;7.60;99.90;;;;;;5041818;28;20021;-51
2022/11/29 09:30:33;;;;;;;18.02;11.30;;;7.60;99.90;;;;;;5041723;28;20026;-51
2022/11/29 09:33:03;;;;;;;22.08;14.50;;;7.30;99.90;;;;;;5021784;28;20396;-51
2022/11/29 09:35:29;;;;;;;17.48;11.20;;;7.50;99.90;;;;;;5040895;28;20021;-51
2022/11/29 09:37:55;;;;;;;16.55;11.90;;;7.50;99.90;;;;;;5042026;28;20380;-51
2022/11/29 09:40:29;;;;;;;19.30;13.88;;;7.60;99.90;;;;;;4985986;28;20042;-52
2022/11/29 09:43:20;;;;;;;13.57;9.13;;;7.50;99.90;;;;;;5043017;28;20020;-51
2022/11/29 09:45:52;;;;;;;18.52;12.30;;;7.40;99.90;;;;;;5045595;28;20104;-51
2022/11/29 09:48:42;;;;;;;18.17;12.95;;;7.60;99.90;;;;;;4995146;28;20092;-51
2022/11/29 09:51:24;;;;;;;20.23;12.25;;;8.10;99.90;;;;;;5021101;28;20462;-53
2022/11/29 09:53:56;;;;;;;17.85;9.35;;;8.60;99.90;;;;;;5024654;28;20029;-51
2022/11/29 09:56:28;;;;;;;10.18;7.82;;;;;;;;;;5019204;28;20065;-51
2022/11/29 09:58:57;;;;;;;12.63;8.80;;;;;;;;;;5022004;28;20103;-51
2022/11/29 10:01:28;;;;;;;9.55;7.93;;;9.40;99.90;;;;;;5025488;28;20121;-52
2022/11/29 10:04:01;;;;;;;9.18;7.80;;;9.80;99.90;;;;;;5023086;28;20390;-51
2022/11/29 10:06:35;;;;;;;13.50;9.55;;;9.60;99.90;;;;;;5022093;28;20038;-52
2022/11/29 10:09:06;;;;;;;7.78;6.10;;;9.60;99.90;;;;;;5022963;28;20482;-51
2022/11/29 10:11:58;;;;;;;12.85;9.00;;;9.90;99.90;;;;;;5023715;28;20025;-51
2022/11/29 10:14:30;;;;;;;18.25;12.70;;;10.10;99.90;;;;;;5027211;28;20068;-50
2022/11/29 10:17:12;;;;;;;;;;;11.20;99.90;;;;;;5030449;28;20025;-48
2022/11/29 10:19:44;;;;;;;10.57;7.85;;;12.10;99.90;;;;;;5021195;28;19913;-54
2022/11/29 10:22:48;;;;;;;12.57;7.95;;;11.70;99.90;;;;;;5004792;28;20437;-55
2022/11/29 10:25:24;;;;;;;16.02;10.50;;;11.10;99.90;;;;;;4930741;29;20051;-56
2022/11/29 10:27:51;;;;;;;12.20;9.07;;;10.60;99.90;;;;;;4934326;29;20143;-53
2022/11/29 10:30:17;;;;;;;14.27;9.18;;;10.60;99.90;;;;;;4933312;29;20643;-54
2022/11/29 10:32:50;;;;;;;11.30;8.32;;;10.40;99.90;;;;;;4918479;29;20063;-56
2022/11/29 10:35:18;;;;;;;8.50;5.80;;;9.90;99.90;;;;;;4934635;29;20041;-55
2022/11/29 10:37:44;;;;;;;13.02;8.80;;;9.20;99.90;;;;;;4931816;29;20523;-53
2022/11/29 10:40:15;;;;;;;10.43;8.10;;;9.20;99.90;;;;;;4932464;29;20055;-56
2022/11/29 10:42:53;;;;;;;11.35;7.60;;;9.20;99.90;;;;;;4934221;29;20076;-58
2022/11/29 10:45:24;;;;;;;13.95;8.77;;;9.10;99.90;;;;;;4929707;29;20079;-52
2022/11/29 10:47:53;;;;;;;12.02;9.05;;;9.10;99.90;;;;;;4926717;29;20138;-54
2022/11/29 10:50:24;;;;;;;11.73;7.68;;;9.30;99.90;;;;;;4923932;29;20042;-52
2022/11/29 10:52:50;;;;;;;10.85;7.88;;;;;;;;;;4938401;28;20308;-54
2022/11/29 10:55:16;;;;;;;12.20;8.27;;;9.20;99.90;;;;;;4968114;28;20050;-50
2022/11/29 10:58:07;;;;;;;10.27;5.00;;;9.00;99.90;;;;;;4969048;28;20029;-51
2022/11/29 11:00:43;;;;;;;9.02;5.25;;;9.00;99.90;;;;;;4972294;28;20074;-57
2022/11/29 11:03:32;;;;;;;12.38;8.85;;;8.80;99.90;;;;;;5002789;28;20045;-58
2022/11/29 11:06:01;;;;;;;7.15;4.78;;;9.00;99.90;;;;;;4941259;29;20035;-51
2022/11/29 11:08:27;;;;;;;15.30;8.98;;;8.90;99.90;;;;;;4944347;29;20318;-56
2022/11/29 11:10:55;;;;;;;17.30;8.57;;;9.00;99.90;;;;;;4943798;28;20046;-58
2022/11/29 11:13:24;;;;;;;11.80;8.20;;;9.00;99.90;;;;;;4917905;29;20039;-52
2022/11/29 11:15:55;;;;;;;11.05;7.90;;;;;;;;;;4914156;29;20436;-58
2022/11/29 11:18:24;;;;;;;13.40;9.48;;;8.70;99.90;;;;;;4942562;29;20542;-56
2022/11/29 11:20:56;;;;;;;11.63;7.72;;;8.70;99.90;;;;;;4931728;29;20047;-58
2022/11/29 11:23:24;;;;;;;11.75;8.25;;;8.50;99.90;;;;;;4924976;29;20039;-58
2022/11/29 11:25:56;;;;;;;10.52;5.80;;;8.60;99.90;;;;;;4925545;29;20035;-55
2022/11/29 11:28:22;;;;;;;;;;;;;;;;;;4933349;29;20035;-57
2022/11/29 11:31:06;;;;;;;9.02;6.97;;;8.30;99.90;;;;;;4926592;29;19910;-54
2022/11/29 11:33:36;;;;;;;10.85;8.35;;;8.10;99.90;;;;;;4931840;29;20507;-54
2022/11/29 11:36:02;;;;;;;8.40;5.72;;;8.10;99.90;;;;;;4934368;29;20047;-54
2022/11/29 11:38:28;;;;;;;10.50;7.00;;;8.10;99.90;;;;;;4934906;29;20040;-55
2022/11/29 11:41:11;;;;;;;11.57;8.75;;;8.00;99.90;;;;;;4934538;29;20069;-54
2022/11/29 11:43:37;;;;;;;11.48;8.63;;;8.00;99.90;;;;;;4979177;28;20042;-55
2022/11/29 11:46:03;;;;;;;9.27;7.00;;;8.00;99.90;;;;;;4959934;28;20514;-54
2022/11/29 11:48:29;;;;;;;11.13;7.60;;;7.90;99.90;;;;;;4960135;28;20607;-54
2022/11/29 11:50:58;;;;;;;10.27;7.15;;;7.80;99.90;;;;;;4992309;28;20041;-56
2022/11/29 11:53:36;;;;;;;10.88;7.70;;;7.80;99.90;;;;;;4992337;28;20514;-55
2022/11/29 11:56:11;;;;;;;10.98;7.78;;;7.90;99.90;;;;;;4992062;28;20109;-56
2022/11/29 11:58:38;;;;;;;7.40;5.32;;;7.90;99.90;;;;;;4963951;28;20068;-57
2022/11/29 12:01:29;;;;;;;9.20;7.00;;;7.80;99.90;;;;;;5013725;28;20045;-56
2022/11/29 12:04:01;;;;;;;10.82;7.28;;;;;;;;;;5018718;28;20021;-53
2022/11/29 12:06:36;;;;;;;15.52;9.98;;;;;;;;;;5034073;28;20504;-56
2022/11/29 12:09:07;;;;;;;15.02;10.40;;;7.90;99.90;;;;;;5033563;28;20113;-54
2022/11/29 12:11:50;;;;;;;12.95;8.45;;;8.00;99.90;;;;;;5033993;28;20022;-55
2022/11/29 12:14:35;;;;;;;12.98;8.52;;;7.90;99.90;;;;;;5031819;28;20029;-53
2022/11/29 12:17:11;;;;;;;13.05;8.25;;;;;;;;;;5032071;28;20429;-55
2022/11/29 12:19:45;;;;;;;13.07;8.38;;;8.10;99.90;;;;;;5033435;28;20165;-55
2022/11/29 12:22:16;;;;;;;8.02;4.43;;;8.20;99.90;;;;;;4981946;28;20423;-57
2022/11/29 12:24:53;;;;;;;10.83;7.57;;;8.00;99.90;;;;;;5034024;28;20396;-53
2022/11/29 12:27:19;;;;;;;12.77;6.90;;;8.10;99.90;;;;;;5033554;28;20108;-54
2022/11/29 12:29:45;;;;;;;9.48;7.30;;;8.00;99.90;;;;;;5033595;28;20444;-54
2022/11/29 12:32:26;;;;;;;6.97;4.72;;;8.10;99.90;;;;;;5033639;28;20044;-55
2022/11/29 12:35:28;;;;;;;10.10;7.60;;;8.10;99.90;;;;;;5033860;28;20021;-53
2022/11/29 12:38:00;;;;;;;;;;;8.10;99.90;;;;;;5033884;28;20063;-55
2022/11/29 12:40:35;;;;;;;18.83;8.95;;;8.00;99.90;;;;;;5033586;28;19913;-55
2022/11/29 12:43:34;;;;;;;9.80;6.30;;;7.90;99.90;;;;;;5033375;28;20436;-56
2022/11/29 12:46:15;;;;;;;10.95;7.60;;;7.90;99.90;;;;;;5033518;28;20034;-54
2022/11/29 12:49:05;;;;;;;13.40;9.88;;;7.90;99.90;;;;;;5043982;28;20083;-53
2022/11/29 12:51:32;;;;;;;14.93;8.82;;;8.20;99.90;;;;;;5053026;28;20045;-55
2022/11/29 12:54:23;;;;;;;5.50;4.38;;;8.30;99.90;;;;;;5052968;28;20029;-55
2022/11/29 12:57:13;;;;;;;8.13;5.97;;;8.10;99.90;;;;;;5053076;28;20036;-53
2022/11/29 13:00:06;;;;;;;11.55;7.75;;;8.10;99.90;;;;;;5052886;28;20037;-54
2022/11/29 13:02:46;;;;;;;8.77;6.38;;;8.00;99.90;;;;;;5053042;28;20527;-56
2022/11/29 13:05:39;;;;;;;10.55;5.65;;;8.00;99.90;;;;;;5052903;28;20040;-53
2022/11/29 13:08:10;;;;;;;9.30;6.78;;;7.90;99.90;;;;;;4972124;28;20438;-55
2022/11/29 13:10:53;;;;;;;9.07;6.40;;;8.00;99.90;;;;;;4972275;28;20042;-54
2022/11/29 13:13:32;;;;;;;10.63;7.38;;;8.00;99.90;;;;;;4972222;28;20047;-55
2022/11/29 13:16:25;;;;;;;11.20;7.80;;;7.90;99.90;;;;;;4972028;28;20031;-53
2022/11/29 13:19:13;;;;;;;14.57;8.50;;;8.00;99.90;;;;;;4955637;28;20125;-53
2022/11/29 13:21:58;;;;;;;13.15;10.32;;;8.00;99.90;;;;;;4971412;28;20115;-57
2022/11/29 13:24:44;;;;;;;13.27;8.60;;;8.10;99.90;;;;;;4972154;28;20375;-56
2022/11/29 13:27:18;;;;;;;9.35;7.28;;;8.10;99.90;;;;;;4972008;28;20035;-55
2022/11/29 13:29:45;;;;;;;12.88;8.80;;;7.90;99.90;;;;;;4971869;28;20034;-57
2022/11/29 13:32:30;;;;;;;10.63;7.75;;;8.10;99.90;;;;;;4972507;28;20133;-57
2022/11/29 13:35:00;;;;;;;9.88;7.40;;;8.10;99.90;;;;;;4975769;28;20038;-55
2022/11/29 13:37:35;;;;;;;9.70;7.13;;;8.10;99.90;;;;;;4975775;28;20037;-57
2022/11/29 13:40:29;;;;;;;8.90;6.55;;;8.00;99.90;;;;;;4975206;28;20082;-56